createdAt,value
2023-02-25T00:00:44.259Z,898.00
2023-02-25T00:01:57.727Z,901.00
2023-02-25T00:02:44.346Z,901.00
2023-02-25T00:03:43.241Z,903.00
2023-02-25T00:04:44.220Z,904.00
2023-02-25T00:05:44.195Z,905.00
2023-02-25T00:06:44.192Z,907.00
2023-02-25T00:07:44.191Z,904.00
2023-02-25T00:08:44.167Z,903.00
2023-02-25T00:09:44.169Z,903.00
2023-02-25T00:10:44.178Z,904.00
2023-02-25T00:11:44.178Z,905.00
2023-02-25T00:12:43.143Z,905.00
2023-02-25T00:13:44.147Z,904.00
2023-02-25T00:14:44.129Z,902.00
2023-02-25T00:15:43.120Z,900.00
2023-02-25T00:16:44.191Z,899.00
2023-02-25T00:17:44.116Z,899.00
2023-02-25T00:18:43.099Z,901.00
2023-02-25T00:19:43.113Z,901.00
2023-02-25T00:20:43.084Z,901.00
2023-02-25T00:21:44.098Z,902.00
2023-02-25T00:22:44.070Z,904.00
2023-02-25T00:23:44.066Z,900.00
2023-02-25T00:24:44.110Z,898.00
2023-02-25T00:25:43.035Z,896.00
2023-02-25T00:26:43.064Z,896.00
2023-02-25T00:27:44.037Z,899.00
2023-02-25T00:28:44.062Z,899.00
2023-02-25T00:29:44.103Z,904.00
2023-02-25T00:30:44.386Z,903.00
2023-02-25T00:31:44.513Z,902.00
2023-02-25T00:32:44.337Z,903.00
2023-02-25T00:33:44.307Z,903.00
2023-02-25T00:34:44.369Z,903.00
2023-02-25T00:35:44.409Z,903.00
2023-02-25T00:36:44.544Z,904.00
2023-02-25T00:37:44.524Z,903.00
2023-02-25T00:38:44.592Z,902.00
2023-02-25T00:39:43.730Z,899.00
2023-02-25T00:40:44.675Z,898.00
2023-02-25T00:41:44.833Z,897.00
2023-02-25T00:42:45.251Z,897.00
2023-02-25T00:43:43.846Z,896.00
2023-02-25T00:44:44.905Z,896.00
2023-02-25T00:45:43.969Z,898.00
2023-02-25T00:46:45.059Z,899.00
2023-02-25T00:47:45.072Z,896.00
2023-02-25T00:48:45.133Z,891.00
2023-02-25T00:49:45.183Z,890.00
2023-02-25T00:50:45.240Z,890.00
2023-02-25T00:51:45.281Z,889.00
2023-02-25T00:52:44.341Z,887.00
2023-02-25T00:53:44.401Z,885.00
2023-02-25T00:54:45.460Z,883.00
2023-02-25T00:55:45.529Z,884.00
2023-02-25T00:56:45.566Z,883.00
2023-02-25T00:57:45.663Z,881.00
2023-02-25T00:58:45.709Z,881.00
2023-02-25T00:59:45.740Z,882.00
2023-02-25T01:00:51.500Z,879.00
2023-02-25T01:01:45.905Z,878.00
2023-02-25T01:02:44.840Z,878.00
2023-02-25T01:03:44.776Z,879.00
2023-02-25T01:04:44.778Z,880.00
2023-02-25T01:05:44.767Z,878.00
2023-02-25T01:06:45.752Z,877.00
2023-02-25T01:07:45.759Z,875.00
2023-02-25T01:08:45.740Z,874.00
2023-02-25T01:09:45.738Z,873.00
2023-02-25T01:10:45.733Z,871.00
2023-02-25T01:11:44.715Z,869.00
2023-02-25T01:12:45.705Z,867.00
2023-02-25T01:13:45.762Z,867.00
2023-02-25T01:14:45.699Z,867.00
2023-02-25T01:15:45.711Z,865.00
2023-02-25T01:16:44.683Z,867.00
2023-02-25T01:17:45.679Z,867.00
2023-02-25T01:18:45.676Z,865.00
2023-02-25T01:19:45.653Z,864.00
2023-02-25T01:20:45.654Z,866.00
2023-02-25T01:21:45.640Z,866.00
2023-02-25T01:22:45.667Z,864.00
2023-02-25T01:23:45.700Z,861.00
2023-02-25T01:24:44.734Z,855.00
2023-02-25T01:25:45.797Z,854.00
2023-02-25T01:26:45.870Z,853.00
2023-02-25T01:27:44.918Z,849.00
2023-02-25T01:28:46.016Z,848.00
2023-02-25T01:29:46.075Z,849.00
2023-02-25T01:30:46.130Z,849.00
2023-02-25T01:31:46.410Z,846.00
2023-02-25T01:32:46.274Z,845.00
2023-02-25T01:33:46.304Z,847.00
2023-02-25T01:34:46.325Z,849.00
2023-02-25T01:35:46.397Z,849.00
2023-02-25T01:36:46.465Z,849.00
2023-02-25T01:37:45.515Z,847.00
2023-02-25T01:38:46.597Z,848.00
2023-02-25T01:39:46.646Z,845.00
2023-02-25T01:40:45.689Z,843.00
2023-02-25T01:41:45.756Z,844.00
2023-02-25T01:42:46.823Z,842.00
2023-02-25T01:43:46.899Z,839.00
2023-02-25T01:44:46.933Z,839.00
2023-02-25T01:45:47.028Z,838.00
2023-02-25T01:46:47.131Z,836.00
2023-02-25T01:47:47.121Z,837.00
2023-02-25T01:48:46.182Z,835.00
2023-02-25T01:49:47.256Z,834.00
2023-02-25T01:50:47.320Z,836.00
2023-02-25T01:51:47.381Z,831.00
2023-02-25T01:52:47.442Z,826.00
2023-02-25T01:53:47.502Z,824.00
2023-02-25T01:54:47.572Z,821.00
2023-02-25T01:55:47.640Z,817.00
2023-02-25T01:56:46.672Z,815.00
2023-02-25T01:57:47.731Z,815.00
2023-02-25T01:58:47.808Z,813.00
2023-02-25T01:59:47.875Z,813.00
2023-02-25T02:00:48.006Z,811.00
2023-02-25T02:01:48.043Z,809.00
2023-02-25T02:02:48.099Z,809.00
2023-02-25T02:03:47.120Z,808.00
2023-02-25T02:04:47.166Z,808.00
2023-02-25T02:05:47.236Z,807.00
2023-02-25T02:06:47.324Z,807.00
2023-02-25T02:07:48.386Z,807.00
2023-02-25T02:08:47.426Z,808.00
2023-02-25T02:09:47.506Z,807.00
2023-02-25T02:10:48.547Z,808.00
2023-02-25T02:11:48.602Z,806.00
2023-02-25T02:12:48.654Z,806.00
2023-02-25T02:13:47.732Z,804.00
2023-02-25T02:14:47.813Z,803.00
2023-02-25T02:15:47.847Z,801.00
2023-02-25T02:16:48.920Z,800.00
2023-02-25T02:17:49.005Z,797.00
2023-02-25T02:18:49.034Z,792.00
2023-02-25T02:19:49.116Z,788.00
2023-02-25T02:20:49.163Z,787.00
2023-02-25T02:21:49.217Z,785.00
2023-02-25T02:22:49.293Z,783.00
2023-02-25T02:23:49.365Z,783.00
2023-02-25T02:24:49.471Z,785.00
2023-02-25T02:25:49.478Z,785.00
2023-02-25T02:26:49.555Z,786.00
2023-02-25T02:27:49.601Z,786.00
2023-02-25T02:28:49.686Z,783.00
2023-02-25T02:29:49.756Z,781.00
2023-02-25T02:30:49.847Z,783.00
2023-02-25T02:31:49.991Z,781.00
2023-02-25T02:32:49.939Z,779.00
2023-02-25T02:33:49.026Z,779.00
2023-02-25T02:34:50.080Z,777.00
2023-02-25T02:35:49.122Z,779.00
2023-02-25T02:36:50.199Z,781.00
2023-02-25T02:37:50.270Z,782.00
2023-02-25T02:38:50.325Z,785.00
2023-02-25T02:39:50.381Z,781.00
2023-02-25T02:40:49.425Z,780.00
2023-02-25T02:41:50.491Z,779.00
2023-02-25T02:42:50.562Z,774.00
2023-02-25T02:43:50.656Z,772.00
2023-02-25T02:44:49.693Z,774.00
2023-02-25T02:45:50.836Z,772.00
2023-02-25T02:46:49.803Z,769.00
2023-02-25T02:47:49.853Z,768.00
2023-02-25T02:48:50.945Z,766.00
2023-02-25T02:49:50.990Z,765.00
2023-02-25T02:50:51.056Z,766.00
2023-02-25T02:51:51.111Z,766.00
2023-02-25T02:52:50.187Z,764.00
2023-02-25T02:53:51.243Z,763.00
2023-02-25T02:54:51.340Z,762.00
2023-02-25T02:55:51.339Z,761.00
2023-02-25T02:56:51.400Z,759.00
2023-02-25T02:57:51.457Z,757.00
2023-02-25T02:58:51.518Z,754.00
2023-02-25T02:59:50.563Z,752.00
2023-02-25T03:00:50.734Z,748.00
2023-02-25T03:01:51.669Z,745.00
2023-02-25T03:02:51.732Z,748.00
2023-02-25T03:03:51.874Z,747.00
2023-02-25T03:04:51.894Z,746.00
2023-02-25T03:05:51.941Z,744.00
2023-02-25T03:06:50.974Z,744.00
2023-02-25T03:07:52.033Z,746.00
2023-02-25T03:08:51.095Z,748.00
2023-02-25T03:09:51.156Z,748.00
2023-02-25T03:10:52.216Z,748.00
2023-02-25T03:11:52.273Z,745.00
2023-02-25T03:12:52.353Z,742.00
2023-02-25T03:13:52.406Z,742.00
2023-02-25T03:14:52.459Z,739.00
2023-02-25T03:15:52.539Z,736.00
2023-02-25T03:16:51.647Z,732.00
2023-02-25T03:17:52.659Z,729.00
2023-02-25T03:18:52.702Z,730.00
2023-02-25T03:19:51.758Z,728.00
2023-02-25T03:20:52.838Z,727.00
2023-02-25T03:21:51.831Z,727.00
2023-02-25T03:22:52.869Z,727.00
2023-02-25T03:23:52.939Z,729.00
2023-02-25T03:24:52.994Z,728.00
2023-02-25T03:25:53.067Z,728.00
2023-02-25T03:26:53.062Z,725.00
2023-02-25T03:27:53.115Z,723.00
2023-02-25T03:28:53.152Z,719.00
2023-02-25T03:29:53.190Z,715.00
2023-02-25T03:30:53.276Z,715.00
2023-02-25T03:31:53.438Z,713.00
2023-02-25T03:32:53.404Z,713.00
2023-02-25T03:33:53.349Z,711.00
2023-02-25T03:34:53.398Z,710.00
2023-02-25T03:35:53.471Z,708.00
2023-02-25T03:36:53.499Z,709.00
2023-02-25T03:37:53.522Z,709.00
2023-02-25T03:38:52.552Z,707.00
2023-02-25T03:39:52.601Z,707.00
2023-02-25T03:40:53.612Z,707.00
2023-02-25T03:41:53.625Z,705.00
2023-02-25T03:42:52.632Z,706.00
2023-02-25T03:43:52.625Z,706.00
2023-02-25T03:44:53.681Z,703.00
2023-02-25T03:45:53.702Z,700.00
2023-02-25T03:46:53.708Z,697.00
2023-02-25T03:47:53.669Z,693.00
2023-02-25T03:48:53.685Z,695.00
2023-02-25T03:49:53.736Z,696.00
2023-02-25T03:50:52.679Z,692.00
2023-02-25T03:51:53.659Z,691.00
2023-02-25T03:52:53.706Z,690.00
2023-02-25T03:53:53.657Z,689.00
2023-02-25T03:54:53.681Z,689.00
2023-02-25T03:55:53.646Z,688.00
2023-02-25T03:56:52.657Z,687.00
2023-02-25T03:57:53.667Z,686.00
2023-02-25T03:58:52.666Z,686.00
2023-02-25T03:59:53.686Z,685.00
2023-02-25T04:00:53.686Z,685.00
2023-02-25T04:01:53.687Z,684.00
2023-02-25T04:02:53.685Z,684.00
2023-02-25T04:03:53.691Z,685.00
2023-02-25T04:04:53.770Z,684.00
2023-02-25T04:05:53.698Z,685.00
2023-02-25T04:06:53.703Z,683.00
2023-02-25T04:07:53.717Z,682.00
2023-02-25T04:08:53.752Z,683.00
2023-02-25T04:09:53.720Z,684.00
2023-02-25T04:10:52.734Z,685.00
2023-02-25T04:11:53.745Z,685.00
2023-02-25T04:12:53.765Z,681.00
2023-02-25T04:13:53.786Z,680.00
2023-02-25T04:14:53.790Z,679.00
2023-02-25T04:15:53.942Z,676.00
2023-02-25T04:16:52.854Z,672.00
2023-02-25T04:17:53.849Z,672.00
2023-02-25T04:18:53.905Z,672.00
2023-02-25T04:19:53.881Z,671.00
2023-02-25T04:20:53.883Z,673.00
2023-02-25T04:21:53.891Z,674.00
2023-02-25T04:22:52.879Z,674.00
2023-02-25T04:23:53.888Z,672.00
2023-02-25T04:24:53.910Z,671.00
2023-02-25T04:25:53.892Z,669.00
2023-02-25T04:26:53.909Z,668.00
2023-02-25T04:27:53.895Z,668.00
2023-02-25T04:28:53.927Z,665.00
2023-02-25T04:29:53.918Z,661.00
2023-02-25T04:30:54.001Z,660.00
2023-02-25T04:31:53.093Z,662.00
2023-02-25T04:32:53.031Z,659.00
2023-02-25T04:33:52.911Z,662.00
2023-02-25T04:34:53.924Z,662.00
2023-02-25T04:35:53.940Z,657.00
2023-02-25T04:36:53.970Z,656.00
2023-02-25T04:37:53.970Z,655.00
2023-02-25T04:38:53.970Z,652.00
2023-02-25T04:39:53.955Z,652.00
2023-02-25T04:40:53.996Z,652.00
2023-02-25T04:41:53.976Z,655.00
2023-02-25T04:42:53.948Z,657.00
2023-02-25T04:43:53.944Z,656.00
2023-02-25T04:44:53.952Z,654.00
2023-02-25T04:45:53.947Z,652.00
2023-02-25T04:46:54.066Z,653.00
2023-02-25T04:47:53.938Z,654.00
2023-02-25T04:48:53.948Z,653.00
2023-02-25T04:49:52.945Z,654.00
2023-02-25T04:50:52.941Z,653.00
2023-02-25T04:51:53.966Z,651.00
2023-02-25T04:52:53.936Z,651.00
2023-02-25T04:53:53.945Z,650.00
2023-02-25T04:54:52.939Z,651.00
2023-02-25T04:55:53.940Z,650.00
2023-02-25T04:56:52.964Z,648.00
2023-02-25T04:57:52.966Z,648.00
2023-02-25T04:58:53.984Z,648.00
2023-02-25T04:59:53.932Z,647.00
2023-02-25T05:00:54.015Z,648.00
2023-02-25T05:01:54.024Z,649.00
2023-02-25T05:02:53.943Z,646.00
2023-02-25T05:03:53.955Z,643.00
2023-02-25T05:04:53.048Z,640.00
2023-02-25T05:05:53.958Z,640.00
2023-02-25T05:06:53.952Z,640.00
2023-02-25T05:07:54.002Z,638.00
2023-02-25T05:08:52.959Z,637.00
2023-02-25T05:09:53.965Z,637.00
2023-02-25T05:10:53.973Z,634.00
2023-02-25T05:11:54.844Z,635.00
2023-02-25T05:12:53.990Z,633.00
2023-02-25T05:13:54.018Z,631.00
2023-02-25T05:14:53.983Z,631.00
2023-02-25T05:15:54.052Z,630.00
2023-02-25T05:16:53.010Z,630.00
2023-02-25T05:17:53.007Z,630.00
2023-02-25T05:18:56.071Z,631.00
2023-02-25T05:19:53.990Z,627.00
2023-02-25T05:20:52.985Z,627.00
2023-02-25T05:21:53.993Z,627.00
2023-02-25T05:22:54.090Z,625.00
2023-02-25T05:23:52.973Z,627.00
2023-02-25T05:24:53.942Z,624.00
2023-02-25T05:25:53.947Z,623.00
2023-02-25T05:26:53.945Z,623.00
2023-02-25T05:27:52.964Z,624.00
2023-02-25T05:28:53.932Z,627.00
2023-02-25T05:29:54.024Z,625.00
2023-02-25T05:30:53.998Z,624.00
2023-02-25T05:31:54.107Z,624.00
2023-02-25T05:32:53.965Z,621.00
2023-02-25T05:33:52.888Z,619.00
2023-02-25T05:34:53.887Z,620.00
2023-02-25T05:35:53.875Z,619.00
2023-02-25T05:36:52.863Z,619.00
2023-02-25T05:37:52.845Z,619.00
2023-02-25T05:38:53.842Z,618.00
2023-02-25T05:39:52.828Z,617.00
2023-02-25T05:40:53.816Z,616.00
2023-02-25T05:41:53.821Z,616.00
2023-02-25T05:42:53.829Z,614.00
2023-02-25T05:43:53.839Z,613.00
2023-02-25T05:44:53.793Z,613.00
2023-02-25T05:45:53.774Z,617.00
2023-02-25T05:46:53.821Z,618.00
2023-02-25T05:47:53.785Z,618.00
2023-02-25T05:48:53.848Z,617.00
2023-02-25T05:49:53.755Z,619.00
2023-02-25T05:50:53.747Z,619.00
2023-02-25T05:51:52.733Z,618.00
2023-02-25T05:52:53.735Z,619.00
2023-02-25T05:53:52.718Z,616.00
2023-02-25T05:54:53.708Z,616.00
2023-02-25T05:55:53.704Z,615.00
2023-02-25T05:56:53.684Z,615.00
2023-02-25T05:57:53.682Z,612.00
2023-02-25T05:58:53.676Z,611.00
2023-02-25T05:59:53.694Z,611.00
2023-02-25T06:00:53.663Z,609.00
2023-02-25T06:01:53.684Z,608.00
2023-02-25T06:02:53.703Z,611.00
2023-02-25T06:03:53.632Z,612.00
2023-02-25T06:04:52.625Z,611.00
2023-02-25T06:05:53.627Z,611.00
2023-02-25T06:06:53.628Z,610.00
2023-02-25T06:07:52.620Z,609.00
2023-02-25T06:08:53.597Z,607.00
2023-02-25T06:09:53.615Z,611.00
2023-02-25T06:10:52.581Z,611.00
2023-02-25T06:11:52.651Z,610.00
2023-02-25T06:12:53.586Z,610.00
2023-02-25T06:13:53.582Z,611.00
2023-02-25T06:14:53.552Z,611.00
2023-02-25T06:15:52.566Z,607.00
2023-02-25T06:16:53.586Z,605.00
2023-02-25T06:17:53.544Z,601.00
2023-02-25T06:18:53.532Z,599.00
2023-02-25T06:19:53.509Z,598.00
2023-02-25T06:20:52.512Z,598.00
2023-02-25T06:21:52.483Z,595.00
2023-02-25T06:22:53.497Z,598.00
2023-02-25T06:23:53.490Z,600.00
2023-02-25T06:24:53.459Z,601.00
2023-02-25T06:25:53.457Z,599.00
2023-02-25T06:26:53.485Z,598.00
2023-02-25T06:27:53.457Z,597.00
2023-02-25T06:28:53.444Z,598.00
2023-02-25T06:29:52.443Z,598.00
2023-02-25T06:30:53.509Z,597.00
2023-02-25T06:31:53.616Z,597.00
2023-02-25T06:32:53.543Z,598.00
2023-02-25T06:33:53.423Z,594.00
2023-02-25T06:34:53.391Z,594.00
2023-02-25T06:35:53.385Z,592.00
2023-02-25T06:36:53.465Z,592.00
2023-02-25T06:37:53.386Z,593.00
2023-02-25T06:38:53.460Z,591.00
2023-02-25T06:39:53.366Z,588.00
2023-02-25T06:40:53.352Z,587.00
2023-02-25T06:41:53.335Z,586.00
2023-02-25T06:42:53.343Z,586.00
2023-02-25T06:43:52.649Z,586.00
2023-02-25T06:44:53.336Z,584.00
2023-02-25T06:45:52.374Z,583.00
2023-02-25T06:46:52.305Z,585.00
2023-02-25T06:47:52.325Z,585.00
2023-02-25T06:48:53.354Z,586.00
2023-02-25T06:49:53.344Z,587.00
2023-02-25T06:50:53.341Z,589.00
2023-02-25T06:51:53.392Z,590.00
2023-02-25T06:52:52.371Z,589.00
2023-02-25T06:53:53.450Z,586.00
2023-02-25T06:54:53.396Z,585.00
2023-02-25T06:55:53.420Z,585.00
2023-02-25T06:56:52.418Z,584.00
2023-02-25T06:57:52.438Z,583.00
2023-02-25T06:58:53.447Z,582.00
2023-02-25T06:59:52.452Z,580.00
2023-02-25T07:00:52.547Z,578.00
2023-02-25T07:01:53.502Z,576.00
2023-02-25T07:02:52.558Z,578.00
2023-02-25T07:03:52.570Z,578.00
2023-02-25T07:04:53.592Z,579.00
2023-02-25T07:05:52.568Z,577.00
2023-02-25T07:06:53.597Z,579.00
2023-02-25T07:07:52.602Z,578.00
2023-02-25T07:08:53.625Z,578.00
2023-02-25T07:09:53.637Z,578.00
2023-02-25T07:10:52.653Z,580.00
2023-02-25T07:11:53.686Z,579.00
2023-02-25T07:12:53.721Z,581.00
2023-02-25T07:13:53.699Z,582.00
2023-02-25T07:14:52.723Z,584.00
2023-02-25T07:15:53.781Z,584.00
2023-02-25T07:16:53.840Z,582.00
2023-02-25T07:17:53.808Z,580.00
2023-02-25T07:18:53.836Z,580.00
2023-02-25T07:19:53.840Z,580.00
2023-02-25T07:20:53.829Z,580.00
2023-02-25T07:21:53.853Z,581.00
2023-02-25T07:22:53.888Z,580.00
2023-02-25T07:23:53.894Z,581.00
2023-02-25T07:24:53.983Z,579.00
2023-02-25T07:25:53.928Z,579.00
2023-02-25T07:26:53.961Z,578.00
2023-02-25T07:27:53.974Z,577.00
2023-02-25T07:28:53.993Z,581.00
2023-02-25T07:29:54.030Z,582.00
2023-02-25T07:30:54.225Z,581.00
2023-02-25T07:31:53.229Z,579.00
2023-02-25T07:32:54.112Z,576.00
2023-02-25T07:33:54.095Z,574.00
2023-02-25T07:34:54.128Z,575.00
2023-02-25T07:35:53.180Z,574.00
2023-02-25T07:36:53.162Z,573.00
2023-02-25T07:37:54.180Z,571.00
2023-02-25T07:38:54.222Z,574.00
2023-02-25T07:39:54.222Z,573.00
2023-02-25T07:40:54.247Z,574.00
2023-02-25T07:41:54.271Z,574.00
2023-02-25T07:42:54.312Z,573.00
2023-02-25T07:43:54.319Z,573.00
2023-02-25T07:44:54.332Z,574.00
2023-02-25T07:45:54.418Z,574.00
2023-02-25T07:46:54.374Z,569.00
2023-02-25T07:47:53.406Z,566.00
2023-02-25T07:48:53.418Z,567.00
2023-02-25T07:49:53.414Z,569.00
2023-02-25T07:50:53.430Z,570.00
2023-02-25T07:51:54.484Z,572.00
2023-02-25T07:52:54.472Z,570.00
2023-02-25T07:53:54.507Z,568.00
2023-02-25T07:54:54.518Z,565.00
2023-02-25T07:55:54.532Z,566.00
2023-02-25T07:56:54.540Z,565.00
2023-02-25T07:57:54.559Z,565.00
2023-02-25T07:58:54.578Z,565.00
2023-02-25T07:59:54.598Z,564.00
2023-02-25T08:00:54.613Z,565.00
2023-02-25T08:01:53.645Z,566.00
2023-02-25T08:02:54.749Z,565.00
2023-02-25T08:03:54.671Z,564.00
2023-02-25T08:04:54.671Z,564.00
2023-02-25T08:05:53.703Z,567.00
2023-02-25T08:06:54.723Z,566.00
2023-02-25T08:07:54.778Z,566.00
2023-02-25T08:08:54.803Z,565.00
2023-02-25T08:09:53.806Z,566.00
2023-02-25T08:10:54.834Z,564.00
2023-02-25T08:11:54.852Z,561.00
2023-02-25T08:12:54.884Z,557.00
2023-02-25T08:13:54.902Z,557.00
2023-02-25T08:14:54.917Z,557.00
2023-02-25T08:15:55.012Z,558.00
2023-02-25T08:16:53.972Z,557.00
2023-02-25T08:17:55.004Z,559.00
2023-02-25T08:18:55.028Z,559.00
2023-02-25T08:19:54.055Z,560.00
2023-02-25T08:20:55.091Z,560.00
2023-02-25T08:21:55.123Z,557.00
2023-02-25T08:22:55.125Z,557.00
2023-02-25T08:23:55.174Z,560.00
2023-02-25T08:24:55.190Z,561.00
2023-02-25T08:25:55.208Z,561.00
2023-02-25T08:26:55.320Z,560.00
2023-02-25T08:27:54.259Z,560.00
2023-02-25T08:28:55.279Z,558.00
2023-02-25T08:29:55.315Z,558.00
2023-02-25T08:30:55.518Z,556.00
2023-02-25T08:31:54.707Z,554.00
2023-02-25T08:32:54.426Z,553.00
2023-02-25T08:33:55.427Z,553.00
2023-02-25T08:34:55.460Z,552.00
2023-02-25T08:35:55.469Z,551.00
2023-02-25T08:36:55.517Z,549.00
2023-02-25T08:37:54.521Z,551.00
2023-02-25T08:38:54.623Z,551.00
2023-02-25T08:39:54.597Z,548.00
2023-02-25T08:40:54.606Z,550.00
2023-02-25T08:41:55.618Z,548.00
2023-02-25T08:42:54.650Z,545.00
2023-02-25T08:43:55.723Z,546.00
2023-02-25T08:44:55.704Z,547.00
2023-02-25T08:45:55.731Z,548.00
2023-02-25T08:46:55.854Z,545.00
2023-02-25T08:47:55.776Z,549.00
2023-02-25T08:48:55.823Z,550.00
2023-02-25T08:49:54.846Z,549.00
2023-02-25T08:50:55.865Z,549.00
2023-02-25T08:51:54.889Z,549.00
2023-02-25T08:52:55.918Z,553.00
2023-02-25T08:53:56.021Z,552.00
2023-02-25T08:54:55.979Z,551.00
2023-02-25T08:55:56.028Z,550.00
2023-02-25T08:56:56.036Z,548.00
2023-02-25T08:57:56.046Z,547.00
2023-02-25T08:58:56.105Z,546.00
2023-02-25T08:59:56.100Z,547.00
2023-02-25T09:00:56.203Z,548.00
2023-02-25T09:01:55.171Z,545.00
2023-02-25T09:02:55.193Z,543.00
2023-02-25T09:03:56.228Z,543.00
2023-02-25T09:04:56.267Z,544.00
2023-02-25T09:05:56.266Z,544.00
2023-02-25T09:06:55.280Z,542.00
2023-02-25T09:07:56.307Z,542.00
2023-02-25T09:08:56.331Z,544.00
2023-02-25T09:09:55.349Z,547.00
2023-02-25T09:10:56.369Z,545.00
2023-02-25T09:11:56.440Z,545.00
2023-02-25T09:12:55.433Z,548.00
2023-02-25T09:13:56.471Z,548.00
2023-02-25T09:14:56.466Z,548.00
2023-02-25T09:15:56.510Z,548.00
2023-02-25T09:16:56.579Z,549.00
2023-02-25T09:17:56.605Z,549.00
2023-02-25T09:18:55.572Z,548.00
2023-02-25T09:19:56.607Z,547.00
2023-02-25T09:20:55.622Z,546.00
2023-02-25T09:21:55.641Z,545.00
2023-02-25T09:22:57.444Z,546.00
2023-02-25T09:23:56.729Z,547.00
2023-02-25T09:24:56.714Z,544.00
2023-02-25T09:25:56.753Z,545.00
2023-02-25T09:26:56.768Z,544.00
2023-02-25T09:27:56.798Z,543.00
2023-02-25T09:28:56.798Z,545.00
2023-02-25T09:29:56.893Z,545.00
2023-02-25T09:30:56.904Z,547.00
2023-02-25T09:31:57.111Z,547.00
2023-02-25T09:32:56.122Z,547.00
2023-02-25T09:33:56.956Z,547.00
2023-02-25T09:34:57.026Z,546.00
2023-02-25T09:35:57.101Z,548.00
2023-02-25T09:36:56.039Z,546.00
2023-02-25T09:37:57.104Z,545.00
2023-02-25T09:38:57.133Z,546.00
2023-02-25T09:39:57.151Z,546.00
2023-02-25T09:40:57.203Z,547.00
2023-02-25T09:41:57.211Z,543.00
2023-02-25T09:42:57.250Z,541.00
2023-02-25T09:43:56.306Z,540.00
2023-02-25T09:44:57.302Z,539.00
2023-02-25T09:45:56.397Z,538.00
2023-02-25T09:46:57.382Z,539.00
2023-02-25T09:47:56.541Z,539.00
2023-02-25T09:48:57.419Z,538.00
2023-02-25T09:49:57.464Z,537.00
2023-02-25T09:50:56.490Z,540.00
2023-02-25T09:51:57.555Z,541.00
2023-02-25T09:52:57.610Z,540.00
2023-02-25T09:53:57.729Z,539.00
2023-02-25T09:54:57.627Z,537.00
2023-02-25T09:55:56.650Z,534.00
2023-02-25T09:56:56.688Z,535.00
2023-02-25T09:57:57.723Z,536.00
2023-02-25T09:58:57.761Z,535.00
2023-02-25T09:59:57.833Z,536.00
2023-02-25T10:00:57.823Z,538.00
2023-02-25T10:01:58.017Z,539.00
2023-02-25T10:02:58.073Z,537.00
2023-02-25T10:03:56.944Z,533.00
2023-02-25T10:04:57.983Z,532.00
2023-02-25T10:05:58.035Z,531.00
2023-02-25T10:06:58.045Z,530.00
2023-02-25T10:07:57.100Z,530.00
2023-02-25T10:08:58.135Z,530.00
2023-02-25T10:09:58.198Z,530.00
2023-02-25T10:10:58.214Z,530.00
2023-02-25T10:11:58.242Z,530.00
2023-02-25T10:12:58.293Z,532.00
2023-02-25T10:13:58.317Z,533.00
2023-02-25T10:14:58.385Z,532.00
2023-02-25T10:15:58.431Z,534.00
2023-02-25T10:16:58.478Z,535.00
2023-02-25T10:17:58.505Z,534.00
2023-02-25T10:18:58.519Z,533.00
2023-02-25T10:19:58.576Z,532.00
2023-02-25T10:20:58.602Z,532.00
2023-02-25T10:21:58.650Z,531.00
2023-02-25T10:22:58.672Z,531.00
2023-02-25T10:23:58.720Z,532.00
2023-02-25T10:24:58.758Z,532.00
2023-02-25T10:25:58.792Z,532.00
2023-02-25T10:26:58.848Z,530.00
2023-02-25T10:27:58.889Z,532.00
2023-02-25T10:28:58.926Z,533.00
2023-02-25T10:29:57.974Z,533.00
2023-02-25T10:30:59.187Z,533.00
2023-02-25T10:31:59.405Z,533.00
2023-02-25T10:32:59.179Z,537.00
2023-02-25T10:33:59.155Z,534.00
2023-02-25T10:34:58.182Z,533.00
2023-02-25T10:35:58.252Z,532.00
2023-02-25T10:36:59.277Z,531.00
2023-02-25T10:37:58.314Z,529.00
2023-02-25T10:38:59.367Z,528.00
2023-02-25T10:39:59.403Z,526.00
2023-02-25T10:40:58.433Z,529.00
2023-02-25T10:41:59.464Z,528.00
2023-02-25T10:42:59.512Z,526.00
2023-02-25T10:43:59.563Z,523.00
2023-02-25T10:44:59.605Z,524.00
2023-02-25T10:45:59.671Z,526.00
2023-02-25T10:46:59.678Z,527.00
2023-02-25T10:47:59.744Z,528.00
2023-02-25T10:48:59.785Z,527.00
2023-02-25T10:49:59.811Z,526.00
2023-02-25T10:50:59.857Z,524.00
2023-02-25T10:51:59.910Z,524.00
2023-02-25T10:52:59.937Z,523.00
2023-02-25T10:53:59.980Z,525.00
2023-02-25T10:55:00.010Z,527.00
2023-02-25T10:56:00.051Z,527.00
2023-02-25T10:56:59.105Z,527.00
2023-02-25T10:58:00.137Z,524.00
2023-02-25T10:59:00.183Z,526.00
2023-02-25T11:00:00.240Z,529.00
2023-02-25T11:01:00.265Z,527.00
2023-02-25T11:02:00.599Z,528.00
2023-02-25T11:03:00.389Z,527.00
2023-02-25T11:03:59.422Z,525.00
2023-02-25T11:05:00.426Z,525.00
2023-02-25T11:06:00.456Z,524.00
2023-02-25T11:07:00.505Z,522.00
2023-02-25T11:07:59.549Z,523.00
2023-02-25T11:08:59.586Z,525.00
2023-02-25T11:10:00.614Z,525.00
2023-02-25T11:11:00.690Z,528.00
2023-02-25T11:12:00.700Z,527.00
2023-02-25T11:13:00.732Z,527.00
2023-02-25T11:14:00.770Z,527.00
2023-02-25T11:15:00.796Z,528.00
2023-02-25T11:15:59.877Z,529.00
2023-02-25T11:17:00.864Z,531.00
2023-02-25T11:18:00.922Z,530.00
2023-02-25T11:19:00.954Z,530.00
2023-02-25T11:20:01.033Z,529.00
2023-02-25T11:21:00.039Z,531.00
2023-02-25T11:22:01.066Z,530.00
2023-02-25T11:23:00.120Z,529.00
2023-02-25T11:24:00.153Z,527.00
2023-02-25T11:25:00.200Z,525.00
2023-02-25T11:26:00.230Z,524.00
2023-02-25T11:27:01.267Z,524.00
2023-02-25T11:28:01.302Z,524.00
2023-02-25T11:29:01.340Z,522.00
2023-02-25T11:30:00.367Z,521.00
2023-02-25T11:31:00.463Z,519.00
2023-02-25T11:32:01.599Z,517.00
2023-02-25T11:33:00.443Z,516.00
2023-02-25T11:34:01.461Z,517.00
2023-02-25T11:35:01.502Z,517.00
2023-02-25T11:36:01.564Z,516.00
2023-02-25T11:37:01.549Z,519.00
2023-02-25T11:38:01.589Z,521.00
2023-02-25T11:39:01.620Z,521.00
2023-02-25T11:40:01.647Z,523.00
2023-02-25T11:41:01.686Z,522.00
2023-02-25T11:42:01.728Z,521.00
2023-02-25T11:43:01.778Z,519.00
2023-02-25T11:44:03.113Z,517.00
2023-02-25T11:45:01.797Z,516.00
2023-02-25T11:46:01.861Z,514.00
2023-02-25T11:47:00.863Z,515.00
2023-02-25T11:48:01.896Z,514.00
2023-02-25T11:49:01.946Z,515.00
2023-02-25T11:50:01.952Z,519.00
2023-02-25T11:51:02.008Z,518.00
2023-02-25T11:52:02.044Z,519.00
2023-02-25T11:53:02.115Z,517.00
2023-02-25T11:54:01.159Z,517.00
2023-02-25T11:55:02.210Z,517.00
2023-02-25T11:56:01.171Z,517.00
2023-02-25T11:57:01.185Z,519.00
2023-02-25T11:58:02.217Z,518.00
2023-02-25T11:59:02.249Z,518.00
2023-02-25T12:00:02.285Z,518.00
2023-02-25T12:01:01.317Z,519.00
2023-02-25T12:02:02.341Z,518.00
2023-02-25T12:03:02.430Z,518.00
2023-02-25T12:04:02.409Z,518.00
2023-02-25T12:05:02.455Z,518.00
2023-02-25T12:06:02.598Z,518.00
2023-02-25T12:07:02.526Z,518.00
2023-02-25T12:08:13.406Z,518.00
2023-02-25T12:09:02.548Z,516.00
2023-02-25T12:10:02.541Z,517.00
2023-02-25T12:11:01.625Z,521.00
2023-02-25T12:12:01.536Z,520.00
2023-02-25T12:13:02.532Z,519.00
2023-02-25T12:14:02.512Z,517.00
2023-02-25T12:15:01.518Z,517.00
2023-02-25T12:16:02.550Z,519.00
2023-02-25T12:17:02.506Z,521.00
2023-02-25T12:18:02.514Z,521.00
2023-02-25T12:19:02.720Z,521.00
2023-02-25T12:20:02.489Z,520.00
2023-02-25T12:21:02.492Z,518.00
2023-02-25T12:22:02.461Z,520.00
2023-02-25T12:23:02.452Z,520.00
2023-02-25T12:24:02.477Z,518.00
2023-02-25T12:25:02.469Z,517.00
2023-02-25T12:26:02.480Z,517.00
2023-02-25T12:27:02.441Z,517.00
2023-02-25T12:28:02.424Z,518.00
2023-02-25T12:29:01.447Z,519.00